« Back
NWS Peachtree City, Ga » Text Product » AHN Terminal Aerodrome Forecast


Printer-friendly Version
Current Version              Previous Versions:   1  2  3  4  5  6  7  8  9  

Terminal Aerodrome Forecast

673
FTAK31 PAJN 221700
TAFAHN
TAF
PAHN 221730Z 2218/2318 29008KT P6SM -SHRA OVC012
     FM222300 30008KT P6SM -SHRA SCT015 OVC025
     FM230300 30008KT P6SM VCSH SCT015 BKN050
     FM230700 30012KT P6SM SCT080
     FM231500 29012G20KT P6SM FEW150
      AMD LTD TO CLD VIS AND WIND=

USA.gov is the U.S. government's official web portal to all federal, state and local government web resources and services.